Time;durP1;ratioP1;P1;durP2;ratioP2;P2;SDS_P1;SDS_P2;PMS_P1;PMS_P2;Temp;Humidity;BMP_temperature;BMP_pressure;BME280_temperature;BME280_humidity;BME280_pressure;Samples;Min_cycle;Max_cycle;Signal;HPM_P1;HPM_P2
2022/12/05 00:01:34;;;;;;;15.27;6.95;;;;;;;-8.91;58.03;102739.13;5048121;28;21128;-54
2022/12/05 00:04:02;;;;;;;13.15;6.30;;;;;;;-8.94;57.92;102738.97;5045963;28;20032;-52
2022/12/05 00:06:29;;;;;;;13.98;6.28;;;;;;;-8.94;57.70;102734.66;5053074;28;20040;-50
2022/12/05 00:08:55;;;;;;;13.63;6.60;;;;;;;-9.04;58.15;102736.75;5033817;28;20120;-51
2022/12/05 00:11:24;;;;;;;14.00;6.93;;;;;;;-9.12;58.37;102747.69;5032971;28;20083;-52
2022/12/05 00:13:52;;;;;;;16.13;6.57;;;;;;;-9.11;58.34;102741.66;5040103;28;20029;-51
2022/12/05 00:16:20;;;;;;;15.10;6.65;;;;;;;-9.23;58.67;102730.69;5048010;28;20044;-52
2022/12/05 00:18:45;;;;;;;12.57;6.07;;;;;;;-9.25;58.79;102728.03;5053577;28;20040;-50
2022/12/05 00:21:14;;;;;;;14.05;7.00;;;;;;;-9.25;58.76;102725.44;5051165;28;20041;-59
2022/12/05 00:23:40;;;;;;;15.75;6.53;;;;;;;-9.23;58.75;102725.50;5053215;28;20048;-51
2022/12/05 00:26:06;;;;;;;13.55;6.25;;;;;;;-9.24;58.56;102728.91;5045958;28;20037;-48
2022/12/05 00:28:33;;;;;;;13.70;6.30;;;;;;;-9.29;58.36;102717.44;5033342;28;20033;-50
2022/12/05 00:31:03;;;;;;;13.32;6.45;;;;;;;-9.27;59.09;102733.97;5033534;28;20037;-49
2022/12/05 00:33:29;;;;;;;16.83;6.65;;;;;;;-9.51;59.14;102695.63;5033157;28;20033;-50
2022/12/05 00:35:54;;;;;;;12.07;5.55;;;;;;;-9.28;58.69;102732.19;5035714;28;20032;-50
2022/12/05 00:38:20;;;;;;;12.75;6.80;;;;;;;-9.32;59.09;102727.66;5053319;28;20035;-50
2022/12/05 00:40:45;;;;;;;14.07;6.53;;;;;;;-9.30;59.11;102728.63;5052064;28;20036;-49
2022/12/05 00:43:10;;;;;;;13.45;6.22;;;;;;;-9.38;59.25;102720.47;5053598;28;20020;-51
2022/12/05 00:45:36;;;;;;;13.65;6.03;;;;;;;-9.26;58.96;102721.06;5038810;28;20119;-51
2022/12/05 00:48:01;;;;;;;16.17;6.82;;;;;;;-9.31;58.66;102713.88;5033078;28;20112;-52
2022/12/05 00:50:27;;;;;;;13.32;6.40;;;;;;;-9.32;58.94;102719.88;5033156;28;20043;-50
2022/12/05 00:52:52;;;;;;;14.98;6.07;;;;;;;-9.40;59.11;102707.44;5032945;28;20033;-53
2022/12/05 00:55:18;;;;;;;15.75;6.72;;;;;;;-9.38;58.98;102708.38;5033230;28;20080;-54
2022/12/05 00:57:43;;;;;;;14.02;6.43;;;;;;;-9.40;59.04;102714.31;5033154;28;20033;-53
2022/12/05 01:00:09;;;;;;;15.80;7.03;;;;;;;-9.40;59.36;102707.44;5034191;28;20106;-53
2022/12/05 01:02:34;;;;;;;12.52;6.32;;;;;;;-9.42;59.20;102708.16;5031817;28;20044;-51
2022/12/05 01:04:59;;;;;;;13.85;6.45;;;;;;;-9.38;59.34;102704.91;5050714;28;20041;-52
2022/12/05 01:07:25;;;;;;;12.73;6.57;;;;;;;-9.37;59.21;102714.47;5052660;28;20439;-50
2022/12/05 01:09:50;;;;;;;15.27;6.55;;;;;;;-9.42;58.79;102697.78;5040929;28;20422;-50
2022/12/05 01:12:16;;;;;;;13.63;6.25;;;;;;;-9.48;59.08;102695.78;5032666;28;20030;-51
2022/12/05 01:14:41;;;;;;;13.32;6.32;;;;;;;-9.48;59.26;102694.91;5032776;28;20034;-50
2022/12/05 01:17:07;;;;;;;15.60;6.07;;;;;;;-9.48;59.52;102697.50;5032579;28;20056;-53
2022/12/05 01:19:32;;;;;;;11.55;5.93;;;;;;;-9.46;59.67;102686.34;5046165;28;20036;-49
2022/12/05 01:21:58;;;;;;;15.82;6.05;;;;;;;-9.33;59.26;102692.16;5049182;28;20033;-50
2022/12/05 01:24:25;;;;;;;14.60;6.32;;;;;;;-9.32;58.70;102678.38;5032761;28;20470;-52
2022/12/05 01:26:51;;;;;;;16.50;6.43;;;;;;;-9.39;58.97;102684.94;5032511;28;20108;-51
2022/12/05 01:29:18;;;;;;;17.08;6.47;;;;;;;-9.34;58.47;102675.69;5032609;28;20121;-49
2022/12/05 01:31:44;;;;;;;13.30;6.65;;;;;;;-9.45;58.83;102667.38;5032859;28;20448;-51
2022/12/05 01:34:12;;;;;;;13.60;5.85;;;;;;;-9.45;58.81;102669.97;5041922;28;20056;-50
2022/12/05 01:36:38;;;;;;;13.30;6.25;;;;;;;-9.47;59.12;102657.78;5044482;28;20025;-49
2022/12/05 01:39:05;;;;;;;10.80;5.70;;;;;;;-9.44;58.71;102663.09;5032557;28;20368;-53
2022/12/05 01:41:34;;;;;;;12.65;6.25;;;;;;;-9.47;59.27;102658.63;5040601;28;20033;-51
2022/12/05 01:44:07;;;;;;;21.70;5.55;;;;;;;-9.39;58.72;102657.31;5032243;28;20128;-50
2022/12/05 01:46:35;;;;;;;11.38;5.63;;;;;;;-9.43;58.62;102660.56;5032247;28;20068;-53
2022/12/05 01:49:07;;;;;;;15.55;5.85;;;;;;;-9.42;58.71;102662.34;5039782;28;20037;-55
2022/12/05 01:51:33;;;;;;;13.18;5.72;;;;;;;-9.47;58.72;102662.97;5052373;28;20029;-52
2022/12/05 01:54:00;;;;;;;14.20;5.93;;;;;;;-9.52;58.70;102665.31;5052331;28;20033;-49
2022/12/05 01:56:25;;;;;;;12.32;5.53;;;;;;;-9.49;58.77;102662.00;5052119;28;20337;-52
2022/12/05 01:58:52;;;;;;;11.32;5.82;;;;;;;-9.50;58.61;102655.03;5043289;28;20029;-48
2022/12/05 02:01:19;;;;;;;13.52;6.22;;;;;;;-9.49;58.95;102654.22;5032542;28;20030;-50
2022/12/05 02:03:48;;;;;;;13.05;5.60;;;;;;;-9.42;58.15;102657.16;5032420;28;20037;-50
2022/12/05 02:06:13;;;;;;;18.70;5.95;;;;;;;-9.56;58.55;102653.03;5032475;28;20032;-54
2022/12/05 02:08:39;;;;;;;11.68;6.15;;;;;;;-9.60;58.83;102649.38;5032241;28;20037;-52
2022/12/05 02:11:07;;;;;;;13.55;5.40;;;;;;;-9.59;58.97;102647.69;5032160;28;20037;-51
2022/12/05 02:14:11;;;;;;;16.05;5.28;;;;;;;-9.53;58.91;102654.03;5032098;28;20043;-48
2022/12/05 02:16:54;;;;;;;13.48;6.28;;;;;;;-9.58;58.88;102639.09;5032133;28;20345;-49
2022/12/05 02:19:44;;;;;;;11.52;5.35;;;;;;;-9.57;59.12;102649.53;5036645;28;20025;-50
2022/12/05 02:22:43;;;;;;;12.00;5.93;;;;;;;-9.57;59.09;102640.88;5051994;28;20470;-49
2022/12/05 02:25:33;;;;;;;10.00;5.00;;;;;;;-9.58;58.76;102641.69;5031970;28;20132;-49
2022/12/05 02:28:22;;;;;;;11.30;5.30;;;;;;;-9.57;58.94;102640.88;5030885;28;20048;-48
2022/12/05 02:30:59;;;;;;;14.60;5.65;;;;;;;-9.60;58.69;102635.53;5032852;28;20033;-50
2022/12/05 02:33:41;;;;;;;12.13;5.75;;;;;;;-9.60;58.61;102641.59;5031940;28;20132;-48
2022/12/05 02:36:20;;;;;;;14.02;5.78;;;;;;;-9.61;58.67;102626.84;5039748;28;20463;-48
2022/12/05 02:39:10;;;;;;;12.18;5.65;;;;;;;-9.60;58.35;102632.94;5055731;28;20359;-50
2022/12/05 02:41:45;;;;;;;14.38;5.82;;;;;;;-9.66;58.82;102628.34;5044546;28;20041;-50
2022/12/05 02:44:23;;;;;;;11.35;5.78;;;;;;;-9.72;59.06;102621.16;5035605;28;20033;-53
2022/12/05 02:46:51;;;;;;;11.63;5.35;;;;;;;-9.71;59.11;102628.13;5046586;28;20056;-51
2022/12/05 02:49:24;;;;;;;13.35;6.15;;;;;;;-9.71;58.73;102628.13;5055661;28;20041;-51
2022/12/05 02:51:54;;;;;;;10.82;5.53;;;;;;;-9.71;58.85;102625.53;5055126;28;20044;-56
2022/12/05 02:54:23;;;;;;;11.52;5.40;;;;;;;-9.69;58.83;102631.66;5053615;28;20138;-49
2022/12/05 02:56:49;;;;;;;15.32;5.82;;;;;;;-9.75;58.81;102625.31;5055775;28;20194;-52
2022/12/05 02:59:15;;;;;;;12.68;5.18;;;;;;;-9.84;59.02;102607.63;5055389;28;20029;-54
2022/12/05 03:01:43;;;;;;;13.27;4.82;;;;;;;-9.96;59.28;102585.44;5054615;28;20039;-50
2022/12/05 03:04:12;;;;;;;12.75;5.35;;;;;;;-9.76;59.24;102619.22;5055059;28;20025;-49
2022/12/05 03:06:50;;;;;;;13.70;5.60;;;;;;;-9.80;58.91;102606.94;5055104;28;20025;-49
2022/12/05 03:09:20;;;;;;;14.52;5.70;;;;;;;-9.78;58.89;102605.31;5055051;28;20319;-51
2022/12/05 03:11:49;;;;;;;14.55;5.90;;;;;;;-9.78;59.37;102601.81;5053196;28;20060;-51
2022/12/05 03:14:32;;;;;;;11.50;5.53;;;;;;;-9.81;59.09;102592.19;5054771;28;20416;-52
2022/12/05 03:17:02;;;;;;;10.80;5.32;;;;;;;-9.73;59.13;102600.34;5054856;28;20029;-50
2022/12/05 03:19:34;;;;;;;11.63;5.65;;;;;;;-9.97;59.17;102573.31;5054724;28;20033;-52
2022/12/05 03:22:09;;;;;;;10.63;5.05;;;;;;;-9.77;58.92;102614.88;5055049;28;20360;-51
2022/12/05 03:24:39;;;;;;;12.07;5.82;;;;;;;-9.82;59.00;102598.19;5055018;28;20470;-51
2022/12/05 03:27:44;;;;;;;12.38;5.47;;;;;;;-9.74;58.90;102603.75;5054126;28;20375;-47
2022/12/05 03:30:14;;;;;;;10.30;5.13;;;;;;;-9.72;58.73;102602.13;5044860;28;20417;-51
2022/12/05 03:33:07;;;;;;;12.65;5.43;;;;;;;-9.74;59.00;102601.16;5034572;28;20482;-48
2022/12/05 03:35:39;;;;;;;12.52;5.50;;;;;;;-9.77;58.91;102598.41;5039287;28;20032;-51
2022/12/05 03:38:16;;;;;;;9.02;5.13;;;;;;;-9.79;59.07;102598.34;5054063;28;20065;-52
2022/12/05 03:41:06;;;;;;;13.13;5.35;;;;;;;-9.78;58.89;102584.56;5054149;28;20057;-50
2022/12/05 03:43:44;;;;;;;13.75;5.57;;;;;;;-9.80;58.99;102586.19;5054361;28;20044;-52
2022/12/05 03:46:42;;;;;;;10.98;5.40;;;;;;;-9.79;58.90;102567.22;5053146;28;20355;-52
2022/12/05 03:49:23;;;;;;;11.00;5.13;;;;;;;-9.63;58.21;102576.63;5043517;28;20042;-50
2022/12/05 03:51:54;;;;;;;10.70;5.30;;;;;;;-9.68;58.33;102575.53;5049660;28;20128;-50
2022/12/05 03:54:28;;;;;;;12.70;5.57;;;;;;;-9.70;58.57;102578.03;5053464;28;20029;-52
2022/12/05 03:57:09;;;;;;;10.75;5.47;;;;;;;-9.77;58.43;102564.69;5054022;28;20025;-54
2022/12/05 03:59:39;;;;;;;10.35;5.03;;;;;;;-9.74;58.06;102567.47;5052872;28;20029;-55
2022/12/05 04:02:27;;;;;;;15.25;5.78;;;;;;;-9.74;58.55;102567.47;5034744;28;20101;-57
2022/12/05 04:05:05;;;;;;;15.30;5.63;;;;;;;-9.78;58.52;102557.72;5034104;28;20087;-55
2022/12/05 04:07:34;;;;;;;10.75;5.10;;;;;;;-9.84;58.60;102558.34;5040474;28;20047;-50
2022/12/05 04:10:05;;;;;;;11.45;4.90;;;;;;;-9.83;58.58;102561.00;5053383;28;20448;-49
2022/12/05 04:12:34;;;;;;;13.38;5.28;;;;;;;-9.87;58.53;102547.84;5053851;28;20025;-52
2022/12/05 04:15:05;;;;;;;12.10;4.95;;;;;;;-9.87;58.70;102560.81;5053454;28;20040;-51
2022/12/05 04:17:38;;;;;;;10.85;5.30;;;;;;;-10.05;58.97;102537.47;5033594;28;20046;-53
2022/12/05 04:23:07;;;;;;;12.95;4.93;;;;;;;-10.09;58.39;102518.31;5034511;28;20037;-51
2022/12/05 04:25:48;;;;;;;11.18;5.47;;;;;;;-10.06;58.68;102526.22;5033752;28;20029;-53
2022/12/05 04:28:24;;;;;;;10.70;5.15;;;;;;;-9.91;58.79;102546.81;5043251;28;20033;-56
2022/12/05 04:31:06;;;;;;;10.50;5.30;;;;;;;-9.88;58.65;102546.06;5033200;28;20041;-52
2022/12/05 04:33:39;;;;;;;13.68;5.93;;;;;;;-9.94;58.74;102536.28;5033564;28;20036;-52
2022/12/05 04:36:26;;;;;;;11.88;5.68;;;;;;;-9.93;58.84;102542.34;5033160;28;20431;-52
2022/12/05 04:39:04;;;;;;;10.05;4.75;;;;;;;-10.00;58.99;102538.59;5047019;28;20462;-49
2022/12/05 04:41:38;;;;;;;11.32;5.03;;;;;;;-9.99;58.93;102538.66;5052904;28;20033;-50
2022/12/05 04:44:10;;;;;;;11.55;5.50;;;;;;;-9.96;58.69;102536.19;5052897;28;20028;-51
2022/12/05 04:46:39;;;;;;;10.45;5.07;;;;;;;-10.00;59.00;102547.25;5051119;28;20095;-54
2022/12/05 04:49:09;;;;;;;10.65;5.43;;;;;;;-9.95;58.60;102531.91;5031915;28;20413;-51
2022/12/05 04:51:36;;;;;;;12.68;5.43;;;;;;;-9.95;58.62;102534.50;5032841;28;20044;-52
2022/12/05 04:54:13;;;;;;;8.98;4.80;;;;;;;-10.03;58.97;102531.56;5033079;28;20459;-53
2022/12/05 04:56:42;;;;;;;11.70;5.47;;;;;;;-10.05;58.99;102522.81;5033080;28;20501;-51
2022/12/05 04:59:09;;;;;;;14.93;5.50;;;;;;;-10.30;58.97;102482.78;5052606;28;20033;-52
2022/12/05 05:02:06;;;;;;;9.13;5.03;;;;;;;-10.05;59.09;102521.91;5051792;28;20032;-50
2022/12/05 05:04:40;;;;;;;11.57;5.13;;;;;;;-10.07;59.08;102524.44;5052238;28;20037;-54
2022/12/05 05:07:11;;;;;;;10.43;5.37;;;;;;;-10.06;58.81;102509.78;5036137;28;20369;-57
2022/12/05 05:09:38;;;;;;;15.00;6.05;;;;;;;-10.06;58.81;102520.13;5032395;28;20035;-55
2022/12/05 05:12:03;;;;;;;9.75;4.78;;;;;;;-10.07;58.91;102514.09;5039339;28;20033;-55
2022/12/05 05:14:29;;;;;;;11.45;5.15;;;;;;;-10.07;59.15;102519.28;5052415;28;20029;-54
2022/12/05 05:16:55;;;;;;;13.07;5.15;;;;;;;-10.06;58.99;102515.84;5038612;28;20030;-53
2022/12/05 05:19:21;;;;;;;11.85;5.18;;;;;;;-10.03;58.93;102515.09;5032768;28;20033;-53
2022/12/05 05:21:47;;;;;;;12.27;5.35;;;;;;;-10.03;58.90;102526.38;5032729;28;20463;-55
2022/12/05 05:24:14;;;;;;;12.93;6.15;;;;;;;-9.99;58.77;102530.88;5037252;28;20036;-49
2022/12/05 05:26:42;;;;;;;11.32;5.25;;;;;;;-9.98;58.69;102522.28;5052543;28;20037;-50
2022/12/05 05:29:08;;;;;;;10.85;4.95;;;;;;;-9.95;58.96;102530.19;5052294;28;20112;-49
2022/12/05 05:31:35;;;;;;;10.80;5.30;;;;;;;-9.87;58.94;102537.47;5050863;28;20148;-52
2022/12/05 05:34:01;;;;;;;12.48;5.53;;;;;;;-9.85;58.61;102521.16;5051438;28;20033;-54
2022/12/05 05:36:27;;;;;;;11.43;5.32;;;;;;;-9.82;58.82;102518.72;5049280;28;20040;-54
2022/12/05 05:38:59;;;;;;;9.48;4.88;;;;;;;-9.69;58.57;102521.88;5032721;28;20116;-56
2022/12/05 05:41:33;;;;;;;10.20;5.30;;;;;;;-9.66;57.96;102516.84;5033097;28;20038;-53
2022/12/05 05:43:59;;;;;;;14.17;5.00;;;;;;;-9.58;58.11;102506.81;5045699;28;20028;-53
2022/12/05 05:46:30;;;;;;;13.63;5.75;;;;;;;-9.54;57.75;102504.41;5052387;28;20045;-56
2022/12/05 05:48:56;;;;;;;10.18;5.00;;;;;;;-9.55;58.07;102500.03;5052605;28;20094;-57
2022/12/05 05:51:22;;;;;;;11.15;5.18;;;;;;;-9.50;58.15;102497.66;5051836;28;20379;-52
2022/12/05 05:53:48;;;;;;;11.70;5.68;;;;;;;-9.41;57.90;102505.00;5051234;28;20328;-53
2022/12/05 05:56:18;;;;;;;13.80;5.50;;;;;;;-9.27;57.58;102510.78;5052337;28;20099;-52
2022/12/05 05:58:44;;;;;;;14.32;6.03;;;;;;;-9.21;57.40;102500.69;5052439;28;20029;-58
2022/12/05 06:01:11;;;;;;;10.45;5.35;;;;;;;-9.17;57.06;102499.13;5050134;28;20090;-51
2022/12/05 06:03:38;;;;;;;10.45;5.43;;;;;;;-9.05;57.02;102502.22;5045522;28;20051;-52
2022/12/05 06:06:06;;;;;;;9.90;4.88;;;;;;;-8.93;56.66;102491.50;5052169;28;20033;-58
2022/12/05 06:08:34;;;;;;;9.30;5.07;;;;;;;-8.68;56.03;102513.31;5052023;28;20025;-50
2022/12/05 06:11:04;;;;;;;10.02;5.07;;;;;;;-8.58;55.48;102499.91;5056139;28;20033;-53
2022/12/05 06:13:29;;;;;;;13.00;5.47;;;;;;;-8.44;55.66;102512.53;5047108;28;20032;-54
2022/12/05 06:15:55;;;;;;;12.10;5.07;;;;;;;-8.28;54.73;102499.34;5035850;28;20037;-52
2022/12/05 06:18:20;;;;;;;14.00;6.25;;;;;;;-8.17;54.48;102486.78;5035831;28;20030;-56
2022/12/05 06:20:53;;;;;;;13.73;5.38;;;;;;;-7.94;54.05;102497.19;5036840;28;20055;-53
2022/12/05 06:23:19;;;;;;;10.70;4.47;;;;;;;-7.95;53.40;102453.81;5055003;28;20087;-54
2022/12/05 06:25:49;;;;;;;14.75;5.00;;;;;;;-7.48;52.66;102487.63;5054845;28;20041;-62
2022/12/05 06:28:16;;;;;;;13.50;4.88;;;;;;;-7.31;52.56;102492.56;5035765;28;20419;-57
2022/12/05 06:30:41;;;;;;;13.48;5.05;;;;;;;-7.21;51.68;102492.09;5037465;28;20021;-54
2022/12/05 06:33:07;;;;;;;9.98;4.47;;;;;;;-6.96;51.37;102479.94;5035644;28;20140;-58
2022/12/05 06:35:32;;;;;;;11.52;5.50;;;;;;;-6.71;50.77;102486.00;5035959;28;20067;-53
2022/12/05 06:37:58;;;;;;;9.98;4.97;;;;;;;-6.17;50.39;102479.03;5035646;28;20025;-51
2022/12/05 06:40:23;;;;;;;10.95;5.15;;;;;;;-4.18;46.98;102477.47;5036199;28;20033;-56
2022/12/05 06:42:48;;;;;;;10.38;4.70;;;;;;;-1.74;41.91;102467.03;5044580;28;20029;-56
2022/12/05 06:45:14;;;;;;;11.23;5.28;;;;;;;0.50;38.03;102450.47;5055334;28;20033;-55
2022/12/05 06:47:39;;;;;;;12.25;4.93;;;;;;;2.39;34.39;102457.50;5054854;28;20095;-55
2022/12/05 06:50:06;;;;;;;10.82;4.13;;;;;;;3.72;32.83;102445.13;5044571;28;20064;-53
2022/12/05 06:52:31;;;;;;;12.32;5.20;;;;;;;4.06;31.10;102448.34;5036374;28;20467;-56
2022/12/05 06:54:58;;;;;;;7.70;4.70;;;;;;;3.32;31.87;102456.09;5036689;28;20021;-56
2022/12/05 06:57:24;;;;;;;8.95;4.65;;;;;;;2.64;32.18;102448.59;5048151;28;20047;-55
2022/12/05 06:59:50;;;;;;;9.60;5.10;;;;;;;2.64;32.20;102449.44;5047689;28;20029;-55
2022/12/05 07:02:15;;;;;;;10.13;5.20;;;;;;;3.59;31.44;102454.97;5054342;28;20048;-54
2022/12/05 07:04:40;;;;;;;8.52;5.10;;;;;;;4.76;29.22;102453.66;5051649;28;20029;-66
2022/12/05 07:07:06;;;;;;;10.82;5.70;;;;;;;5.55;27.66;102457.78;5037465;28;20117;-52
2022/12/05 07:12:18;;;;;;;8.95;4.88;;;;;;;3.90;29.48;102450.28;5053578;28;20033;-54
2022/12/05 07:14:44;;;;;;;10.63;5.72;;;;;;;2.36;30.87;102468.09;5053603;28;20371;-57
2022/12/05 07:17:10;;;;;;;11.60;5.38;;;;;;;1.92;32.03;102440.00;5049328;28;20061;-66
2022/12/05 07:19:35;;;;;;;9.52;5.45;;;;;;;2.19;30.86;102454.06;5033146;28;20041;-65
2022/12/05 07:22:01;;;;;;;11.38;5.80;;;;;;;1.92;30.88;102418.88;5046273;28;20053;-66
2022/12/05 07:24:27;;;;;;;12.88;5.75;;;;;;;1.41;31.21;102436.56;5052976;28;20025;-67
2022/12/05 07:26:52;;;;;;;12.35;5.97;;;;;;;0.73;32.25;102443.53;5052372;28;20095;-67
2022/12/05 07:29:18;;;;;;;11.13;5.30;;;;;;;-0.09;33.42;102441.41;5049566;28;20355;-69
2022/12/05 07:31:44;;;;;;;10.90;5.43;;;;;;;-0.98;34.66;102447.72;5036376;28;20509;-64
2022/12/05 07:34:09;;;;;;;15.07;6.03;;;;;;;-1.96;36.07;102442.19;5044115;28;20036;-70
2022/12/05 07:36:35;;;;;;;13.77;5.90;;;;;;;-2.67;37.06;102435.88;5053328;28;20095;-61
2022/12/05 07:39:00;;;;;;;12.85;6.60;;;;;;;-3.22;38.70;102444.53;5049434;28;20034;-57
2022/12/05 07:41:28;;;;;;;15.63;6.05;;;;;;;-3.67;39.08;102434.06;5043588;28;20120;-54
2022/12/05 07:43:55;;;;;;;11.63;5.50;;;;;;;-3.97;40.24;102440.41;5035237;28;20124;-53
2022/12/05 07:46:22;;;;;;;15.35;5.70;;;;;;;-4.34;40.46;102429.09;5033893;28;20375;-55
2022/12/05 07:48:49;;;;;;;10.52;5.45;;;;;;;-4.43;40.73;102448.09;5050169;28;20047;-52
2022/12/05 07:51:15;;;;;;;11.63;5.65;;;;;;;-4.54;41.20;102431.25;5053728;28;20029;-52
2022/12/05 07:53:42;;;;;;;14.85;5.85;;;;;;;-4.65;41.83;102437.13;5043082;28;20044;-53
2022/12/05 07:56:09;;;;;;;11.43;5.68;;;;;;;-4.74;41.41;102438.63;5044832;28;20033;-55
2022/12/05 07:58:36;;;;;;;11.82;5.85;;;;;;;-4.79;41.87;102439.38;5046990;28;20063;-55
2022/12/05 08:01:25;;;;;;;12.82;5.53;;;;;;;-4.79;41.70;102428.94;5037469;28;20036;-57
2022/12/05 08:03:53;;;;;;;14.38;5.60;;;;;;;-4.91;41.53;102424.28;5036213;28;20048;-53
2022/12/05 08:06:22;;;;;;;10.68;5.97;;;;;;;-5.09;42.15;102421.19;5053482;28;20032;-56
2022/12/05 08:08:51;;;;;;;14.75;5.75;;;;;;;-5.03;42.60;102428.31;5054654;28;20141;-57
2022/12/05 08:11:25;;;;;;;12.93;5.45;;;;;;;-4.92;41.84;102416.38;5031398;28;20044;-55
2022/12/05 08:13:52;;;;;;;10.45;5.63;;;;;;;-4.88;42.14;102417.34;5046577;28;20036;-56
2022/12/05 08:16:20;;;;;;;11.07;5.20;;;;;;;-4.85;42.25;102413.06;5051350;28;20048;-56
2022/12/05 08:18:46;;;;;;;11.98;5.72;;;;;;;-4.88;41.75;102413.00;5053202;28;20031;-62
2022/12/05 08:21:17;;;;;;;10.35;5.15;;;;;;;-4.92;41.51;102406.84;5051567;28;20025;-57
2022/12/05 08:23:43;;;;;;;11.02;5.20;;;;;;;-4.93;41.63;102404.16;5052132;28;20033;-53
2022/12/05 08:26:13;;;;;;;11.40;6.03;;;;;;;-4.94;41.82;102410.25;5043768;28;20507;-54
2022/12/05 08:28:39;;;;;;;12.27;5.30;;;;;;;-5.01;42.15;102406.56;5051746;28;20033;-59
2022/12/05 08:31:11;;;;;;;13.75;5.82;;;;;;;-5.02;41.78;102403.94;5052262;28;20056;-60
2022/12/05 08:33:36;;;;;;;14.73;5.75;;;;;;;-5.07;41.72;102391.63;5038556;28;20041;-58
2022/12/05 08:36:04;;;;;;;13.73;6.57;;;;;;;-5.05;42.08;102392.56;5053195;28;20037;-55
2022/12/05 08:38:31;;;;;;;13.50;5.85;;;;;;;-5.00;41.56;102387.44;5048717;28;20167;-59
2022/12/05 08:41:00;;;;;;;11.40;5.90;;;;;;;-4.94;41.68;102381.50;5037110;28;20029;-56
2022/12/05 08:43:27;;;;;;;10.73;5.18;;;;;;;-4.98;41.51;102396.19;5053235;28;20083;-58
2022/12/05 08:45:53;;;;;;;15.15;6.15;;;;;;;-4.99;42.20;102383.13;5048300;28;20379;-54
2022/12/05 08:48:18;;;;;;;13.63;5.15;;;;;;;-4.95;41.83;102375.38;5033874;28;20052;-57
2022/12/05 08:50:44;;;;;;;11.57;4.65;;;;;;;-4.91;42.03;102384.19;5050987;28;20037;-58
2022/12/05 08:53:10;;;;;;;13.40;5.85;;;;;;;-4.94;41.97;102390.25;5032844;28;20040;-54
2022/12/05 08:55:35;;;;;;;13.23;5.88;;;;;;;-4.99;41.71;102368.31;5033399;28;20029;-55
2022/12/05 08:58:01;;;;;;;13.30;5.18;;;;;;;-4.95;41.84;102372.75;5034864;28;20128;-55
2022/12/05 09:00:26;;;;;;;13.85;6.15;;;;;;;-5.13;42.19;102373.19;5052621;28;20889;-62
2022/12/05 09:02:52;;;;;;;16.35;6.43;;;;;;;-5.19;42.47;102375.66;5051893;28;20135;-57
2022/12/05 09:05:17;;;;;;;13.02;5.88;;;;;;;-5.13;42.26;102369.72;5051206;28;20360;-55
2022/12/05 09:07:43;;;;;;;17.20;6.07;;;;;;;-5.10;42.21;102362.81;5031671;28;20114;-57
2022/12/05 09:10:09;;;;;;;13.27;5.60;;;;;;;-5.00;42.27;102360.44;5032426;28;20076;-57
2022/12/05 09:12:37;;;;;;;10.00;5.60;;;;;;;-4.95;41.82;102357.09;5049543;28;20382;-56
2022/12/05 09:15:05;;;;;;;14.60;5.43;;;;;;;-4.94;41.89;102357.97;5049432;28;20126;-58
2022/12/05 09:17:31;;;;;;;14.73;5.28;;;;;;;-4.89;42.20;102353.75;5043241;28;20029;-55
2022/12/05 09:19:56;;;;;;;14.95;4.97;;;;;;;-4.83;41.33;102345.19;5033451;28;20022;-54
2022/12/05 09:22:21;;;;;;;13.02;5.07;;;;;;;-5.09;41.49;102311.47;5033240;28;20040;-52
2022/12/05 09:24:48;;;;;;;12.55;5.88;;;;;;;-4.91;41.38;102340.66;5038339;28;20075;-53
2022/12/05 09:27:13;;;;;;;12.52;5.50;;;;;;;-4.90;41.65;102336.31;5045112;28;20037;-52
2022/12/05 09:29:39;;;;;;;11.52;5.07;;;;;;;-4.90;41.64;102338.91;5041605;28;20041;-57
2022/12/05 09:32:04;;;;;;;11.45;5.45;;;;;;;-5.06;41.59;102308.91;5048831;28;20033;-57
2022/12/05 09:34:30;;;;;;;13.43;5.03;;;;;;;-4.93;41.37;102338.84;5035105;28;20056;-54
2022/12/05 09:36:56;;;;;;;14.90;6.20;;;;;;;-4.96;41.33;102333.53;5048768;28;20044;-51
2022/12/05 09:39:22;;;;;;;14.55;5.43;;;;;;;-4.95;41.51;102332.69;5040262;28;20025;-53
2022/12/05 09:42:24;;;;;;;12.32;4.82;;;;;;;-4.94;42.41;102324.00;5039992;28;20021;-56
2022/12/05 09:45:08;;;;;;;9.63;5.63;;;;;;;-4.97;42.05;102322.19;5038247;28;20055;-52
2022/12/05 09:47:59;;;;;;;19.00;5.63;;;;;;;-4.99;42.22;102323.03;5036751;28;20544;-54
2022/12/05 09:50:27;;;;;;;11.23;5.72;;;;;;;-5.02;41.91;102318.59;5036686;28;20124;-56
2022/12/05 09:53:38;;;;;;;13.45;5.70;;;;;;;-5.02;41.96;102321.22;5053236;28;20124;-60
2022/12/05 09:56:05;;;;;;;12.57;5.68;;;;;;;-5.06;41.44;102303.69;5046764;28;20119;-56
2022/12/05 09:58:46;;;;;;;14.57;5.20;;;;;;;-4.98;42.05;102309.97;5048109;28;20025;-54
2022/12/05 10:01:29;;;;;;;11.88;5.18;;;;;;;-4.97;41.82;102303.91;5046857;28;20108;-54
2022/12/05 10:04:19;;;;;;;14.60;5.20;;;;;;;-4.99;42.51;102291.66;5035845;28;20064;-59
2022/12/05 10:06:53;;;;;;;10.63;5.35;;;;;;;-4.98;41.63;102296.06;5035780;28;20030;-55
2022/12/05 10:09:50;;;;;;;11.65;5.10;;;;;;;-5.16;42.22;102265.16;5050486;28;20029;-54
2022/12/05 10:12:42;;;;;;;12.10;5.10;;;;;;;-5.02;42.24;102291.59;5045279;28;20040;-56
2022/12/05 10:15:31;;;;;;;9.65;5.03;;;;;;;-5.07;41.85;102286.25;5055985;28;20497;-55
2022/12/05 10:18:01;;;;;;;10.40;5.05;;;;;;;-5.21;41.83;102278.09;5056133;28;20086;-56
2022/12/05 10:20:46;;;;;;;10.10;5.07;;;;;;;-5.20;42.55;102275.50;5055867;28;20103;-57
2022/12/05 10:23:20;;;;;;;6.55;4.00;;;;;;;-5.21;42.44;102285.94;5055959;28;20033;-59
2022/12/05 10:25:51;;;;;;;10.50;4.85;;;;;;;-5.29;41.96;102280.50;5055415;28;20112;-53
2022/12/05 10:28:40;;;;;;;9.50;4.68;;;;;;;-5.42;42.70;102255.81;5055228;28;20039;-57
2022/12/05 10:31:15;;;;;;;9.63;4.70;;;;;;;-5.28;42.61;102270.97;5055293;28;20107;-57
2022/12/05 10:33:44;;;;;;;;;;;;;;;-5.02;43.55;102266.34;5056023;28;20051;-55
2022/12/05 10:36:13;;;;;;;9.38;4.65;;;;;;;-5.12;42.08;102270.47;5055540;28;19985;-55
2022/12/05 10:38:41;;;;;;;11.98;5.45;;;;;;;-5.19;42.49;102273.78;5055112;28;20040;-57
2022/12/05 10:41:11;;;;;;;11.00;5.10;;;;;;;-5.23;42.59;102271.94;5055763;28;20428;-57
2022/12/05 10:43:39;;;;;;;8.65;4.50;;;;;;;-5.27;42.70;102270.13;5054170;28;20024;-58
2022/12/05 10:46:05;;;;;;;10.27;4.00;;;;;;;-5.22;42.19;102265.88;5047033;28;20106;-60
2022/12/05 10:48:36;;;;;;;10.63;4.80;;;;;;;-5.22;42.41;102265.88;5054676;28;20045;-56
2022/12/05 10:51:02;;;;;;;11.52;4.78;;;;;;;-5.31;42.66;102271.75;5054856;28;20076;-55
2022/12/05 10:53:43;;;;;;;9.05;5.07;;;;;;;-5.29;43.08;102279.66;5053365;28;20069;-56
2022/12/05 10:56:38;;;;;;;16.45;4.65;;;;;;;-5.25;43.10;102276.25;5049250;28;20037;-58
2022/12/05 10:59:05;;;;;;;7.82;4.15;;;;;;;-5.40;42.53;102276.75;5034629;28;20034;-56
2022/12/05 11:01:30;;;;;;;9.25;4.60;;;;;;;-5.36;42.50;102258.56;5034731;28;20029;-58
2022/12/05 11:04:01;;;;;;;10.98;4.90;;;;;;;-5.31;42.54;102270.84;5034658;28;20091;-59
2022/12/05 11:06:29;;;;;;;9.43;4.82;;;;;;;-5.36;42.54;102263.81;5041815;28;20029;-53
2022/12/05 11:08:58;;;;;;;11.02;4.80;;;;;;;-5.38;42.96;102262.00;5052192;28;20427;-53
2022/12/05 11:11:28;;;;;;;9.95;5.22;;;;;;;-5.36;43.19;102262.94;5054422;28;20060;-57
2022/12/05 11:13:58;;;;;;;9.20;4.57;;;;;;;-5.30;42.88;102260.47;5053768;28;20033;-55
2022/12/05 11:16:36;;;;;;;14.02;4.40;;;;;;;-5.51;42.97;102219.91;5052681;28;20033;-56
2022/12/05 11:19:20;;;;;;;12.25;5.18;;;;;;;-5.26;43.34;102254.47;5052788;28;20032;-55
2022/12/05 11:21:45;;;;;;;11.63;4.68;;;;;;;-5.38;42.96;102246.34;5053426;28;20029;-57
2022/12/05 11:24:29;;;;;;;12.55;4.72;;;;;;;-5.37;43.39;102261.16;5054172;28;20052;-54
2022/12/05 11:27:14;;;;;;;9.32;4.65;;;;;;;-5.52;43.33;102254.72;5034241;28;20021;-54
2022/12/05 11:29:40;;;;;;;11.98;4.20;;;;;;;-5.65;43.54;102250.91;5034271;28;20048;-53
2022/12/05 11:32:20;;;;;;;8.82;4.53;;;;;;;-5.84;43.67;102212.13;5037928;28;20045;-54
2022/12/05 11:35:08;;;;;;;12.38;5.05;;;;;;;-5.72;43.88;102243.78;5039552;28;20033;-52
2022/12/05 11:37:43;;;;;;;8.27;4.30;;;;;;;-5.80;43.81;102250.50;5036924;28;20037;-54
2022/12/05 11:40:17;;;;;;;7.75;4.22;;;;;;;-5.86;44.17;102242.50;5034549;28;20033;-50
2022/12/05 11:43:10;;;;;;;16.73;4.60;;;;;;;-5.83;44.13;102239.97;5041233;28;20045;-53